Time;durP1;ratioP1;P1;durP2;ratioP2;P2;SDS_P1;SDS_P2;PMS_P1;PMS_P2;Temp;Humidity;BMP_temperature;BMP_pressure;BME280_temperature;BME280_humidity;BME280_pressure;Samples;Min_cycle;Max_cycle;Signal;HPM_P1;HPM_P2
2021/07/13 00:01:58;;;;;;;;;4.50;4.50;;;;;17.94;85.05;100810.84;5052374;28;45443;-77
2021/07/13 00:04:23;;;;;;;;;4.75;4.00;;;;;17.94;84.57;100805.50;5053226;28;45488;-78
2021/07/13 00:06:49;;;;;;;;;8.25;4.50;;;;;17.92;84.38;100786.16;5055779;28;45733;-74
2021/07/13 00:09:14;;;;;;;;;7.75;5.00;;;;;17.90;84.69;100772.16;5062159;28;45500;-74
2021/07/13 00:11:40;;;;;;;;;4.00;4.00;;;;;17.88;84.81;100780.38;5047120;28;45582;-72
2021/07/13 00:14:06;;;;;;;;;6.50;6.00;;;;;17.89;84.77;100765.16;5049948;28;46398;-78
2021/07/13 00:16:32;;;;;;;;;6.75;6.00;;;;;17.84;84.91;100774.59;5046676;28;46391;-72
2021/07/13 00:18:58;;;;;;;;;8.75;6.50;;;;;17.81;84.84;100776.84;5045671;28;46989;-75
2021/07/13 00:21:23;;;;;;;;;6.75;6.75;;;;;17.80;85.57;100785.84;5036107;28;45657;-71
2021/07/13 00:23:49;;;;;;;;;5.00;5.00;;;;;17.80;85.25;100784.03;5048680;28;46106;-72
2021/07/13 00:26:15;;;;;;;;;7.00;6.00;;;;;17.81;85.83;100795.53;5049243;28;45555;-70
2021/07/13 00:28:42;;;;;;;;;6.25;5.50;;;;;17.79;86.31;100792.22;5046321;28;45565;-75
2021/07/13 00:31:08;;;;;;;;;7.75;6.75;;;;;17.76;85.64;100797.94;5052413;28;45615;-71
2021/07/13 00:33:33;;;;;;;;;7.25;7.25;;;;;17.74;85.15;100782.09;5049827;28;45633;-73
2021/07/13 00:35:59;;;;;;;;;10.50;8.25;;;;;17.70;85.98;100772.81;5059520;28;45951;-70
2021/07/13 00:38:24;;;;;;;;;9.75;7.50;;;;;17.69;85.92;100784.53;5041074;28;46047;-75
2021/07/13 00:40:50;;;;;;;;;9.00;9.00;;;;;17.65;85.71;100772.56;5048381;28;45428;-71
2021/07/13 00:43:16;;;;;;;;;9.25;9.00;;;;;17.65;86.41;100748.50;5046300;28;45723;-70
2021/07/13 00:45:41;;;;;;;;;10.75;7.50;;;;;17.65;86.14;100742.34;5049703;28;45460;-68
2021/07/13 00:48:07;;;;;;;;;8.25;8.00;;;;;17.65;86.48;100731.66;5051154;28;46254;-73
2021/07/13 00:50:32;;;;;;;;;8.00;8.00;;;;;17.66;85.68;100733.31;5051855;28;45509;-69
2021/07/13 00:52:58;;;;;;;;;12.50;9.25;;;;;17.66;86.37;100736.81;5046259;28;45468;-71
2021/07/13 00:55:24;;;;;;;;;9.00;9.00;;;;;17.67;86.04;100743.81;5061620;28;45600;-73
2021/07/13 00:57:50;;;;;;;;;12.25;10.00;;;;;17.67;85.89;100749.16;5041344;28;45731;-76
2021/07/13 01:00:18;;;;;;;;;11.00;11.00;;;;;17.67;86.08;100751.81;5053703;28;45429;-71
2021/07/13 01:02:48;;;;;;;;;13.00;11.75;;;;;17.68;85.84;100748.16;5053220;28;45494;-76
2021/07/13 01:05:25;;;;;;;;;13.25;12.00;;;;;17.67;85.72;100741.13;5049718;28;45422;-73
2021/07/13 01:07:57;;;;;;;;;13.25;12.50;;;;;17.66;85.18;100736.00;5046240;28;45927;-73
2021/07/13 01:10:50;;;;;;;;;18.25;13.00;;;;;17.64;85.67;100736.19;5046164;28;45617;-72
2021/07/13 01:13:35;;;;;;;;;12.75;12.00;;;;;17.62;85.69;100738.22;5050877;28;45784;-73
2021/07/13 01:16:10;;;;;;;;;17.50;14.00;;;;;17.60;85.88;100737.59;5051113;28;45557;-73
2021/07/13 01:18:46;;;;;;;;;16.00;13.00;;;;;17.59;85.74;100743.97;5032264;28;46815;-71
2021/07/13 01:21:32;;;;;;;;;16.50;13.00;;;;;17.58;85.53;100751.16;5043306;28;45935;-72
2021/07/13 01:24:20;;;;;;;;;16.00;14.00;;;;;17.57;85.59;100748.66;5053670;28;45486;-72
2021/07/13 01:27:00;;;;;;;;;21.25;18.00;;;;;17.55;85.42;100735.50;5045830;28;45536;-73
2021/07/13 01:29:26;;;;;;;;;21.00;17.75;;;;;17.56;85.96;100722.97;5047288;28;45661;-72
2021/07/13 01:31:54;;;;;;;;;17.00;17.00;;;;;17.53;85.71;100726.03;5051267;28;45435;-73
2021/07/13 01:34:40;;;;;;;;;20.75;17.75;;;;;17.51;85.59;100747.63;5046521;28;45767;-72
2021/07/13 01:37:08;;;;;;;;;18.50;18.25;;;;;17.50;85.62;100745.94;5053839;28;45966;-75
2021/07/13 01:39:35;;;;;;;;;23.25;19.00;;;;;17.49;86.38;100755.00;5045752;28;46335;-70
2021/07/13 01:42:07;;;;;;;;;21.25;19.75;;;;;17.50;86.30;100759.31;5046986;28;46012;-71
2021/07/13 01:44:33;;;;;;;;;19.75;18.75;;;;;17.51;86.17;100765.50;5050279;28;45499;-70
2021/07/13 01:46:59;;;;;;;;;22.75;21.00;;;;;17.51;86.34;100773.50;5031328;28;45697;-70
2021/07/13 01:49:26;;;;;;;;;19.50;18.00;;;;;17.52;86.18;100769.81;5044294;28;46859;-72
2021/07/13 01:51:53;;;;;;;;;27.50;21.75;;;;;17.54;85.99;100773.94;5052255;28;45484;-70
2021/07/13 01:54:20;;;;;;;;;21.00;19.25;;;;;17.53;86.41;100768.78;5029254;28;45398;-70
2021/07/13 01:56:47;;;;;;;;;22.75;20.75;;;;;17.54;86.04;100763.25;5050115;28;45536;-76
2021/07/13 01:59:17;;;;;;;;;21.50;21.00;;;;;17.54;85.40;100749.06;5051271;28;45498;-73
2021/07/13 02:01:46;;;;;;;;;24.50;23.50;;;;;17.55;86.47;100758.72;5046387;28;45885;-72
2021/07/13 02:04:13;;;;;;;;;23.25;19.00;;;;;17.55;86.06;100770.22;5053534;28;45523;-72
2021/07/13 02:06:41;;;;;;;;;23.00;20.50;;;;;17.56;86.00;100763.06;5049638;28;45514;-68
2021/07/13 02:09:11;;;;;;;;;23.50;21.50;;;;;17.58;86.37;100761.00;5049701;28;46425;-72
2021/07/13 02:11:38;;;;;;;;;25.00;22.00;;;;;17.57;86.12;100762.03;5047147;28;45640;-72
2021/07/13 02:14:04;;;;;;;;;25.25;21.00;;;;;17.57;85.92;100756.69;5050462;28;45550;-69
2021/07/13 02:16:29;;;;;;;;;26.50;21.50;;;;;17.55;86.45;100750.72;5048651;28;45430;-72
2021/07/13 02:18:55;;;;;;;;;22.00;20.00;;;;;17.55;85.97;100764.88;5043486;28;46856;-72
2021/07/13 02:21:21;;;;;;;;;24.75;21.75;;;;;17.55;86.24;100761.41;5047015;28;46138;-70
2021/07/13 02:23:46;;;;;;;;;21.00;20.50;;;;;17.56;86.28;100755.88;5049205;28;45434;-72
2021/07/13 02:26:19;;;;;;;;;26.50;22.25;;;;;17.57;85.94;100738.81;5035904;28;45782;-76
2021/07/13 02:28:49;;;;;;;;;27.00;23.00;;;;;17.58;86.42;100739.63;5048355;28;45815;-69
2021/07/13 02:31:26;;;;;;;;;26.25;20.75;;;;;17.59;86.70;100754.66;5045919;28;45568;-76
2021/07/13 02:34:06;;;;;;;;;26.25;19.25;;;;;17.58;86.84;100761.84;5047173;28;45601;-72
2021/07/13 02:36:35;;;;;;;;;21.25;21.25;;;;;17.58;87.00;100766.34;5033887;28;45558;-72
2021/07/13 02:39:04;;;;;;;;;20.50;18.75;;;;;17.59;85.63;100754.66;5050986;28;46719;-76
2021/07/13 02:41:30;;;;;;;;;20.75;18.50;;;;;17.61;84.88;100757.97;5046031;28;45643;-73
2021/07/13 02:43:56;;;;;;;;;20.50;16.50;;;;;17.60;86.08;100750.94;5047655;28;45730;-73
2021/07/13 02:46:26;;;;;;;;;19.50;16.50;;;;;17.61;85.24;100741.94;5046764;28;45637;-71
2021/07/13 02:48:52;;;;;;;;;21.25;18.00;;;;;17.61;85.51;100747.28;5032100;28;48236;-72
2021/07/13 02:51:20;;;;;;;;;17.25;17.25;;;;;17.60;85.68;100741.06;5047361;28;45820;-76
2021/07/13 02:53:47;;;;;;;;;18.25;15.25;;;;;17.60;85.95;100751.75;5046209;28;45429;-71
2021/07/13 02:56:15;;;;;;;;;19.25;17.50;;;;;17.60;86.17;100766.97;5050282;28;45386;-75
2021/07/13 02:58:41;;;;;;;;;16.50;15.00;;;;;17.59;86.17;100770.69;5048021;28;45932;-71
2021/07/13 03:01:08;;;;;;;;;18.75;15.00;;;;;17.60;86.57;100764.31;5043436;28;45406;-71
2021/07/13 03:03:39;;;;;;;;;15.50;14.50;;;;;17.60;85.88;100756.28;5047561;28;45630;-72
2021/07/13 03:06:06;;;;;;;;;15.25;15.25;;;;;17.58;85.92;100761.00;5038659;28;45528;-73
2021/07/13 03:08:33;;;;;;;;;17.50;14.50;;;;;17.57;85.60;100770.03;5055642;28;46072;-70
2021/07/13 03:11:00;;;;;;;;;14.75;13.25;;;;;17.54;85.43;100773.13;5036223;28;46343;-76
2021/07/13 03:13:25;;;;;;;;;16.00;13.25;;;;;17.52;85.88;100778.66;5052275;28;45470;-68
2021/07/13 03:15:51;;;;;;;;;15.25;14.50;;;;;17.54;85.86;100778.47;5048282;28;45552;-71
2021/07/13 03:18:18;;;;;;;;;16.50;15.00;;;;;17.53;85.97;100774.13;5048076;28;46650;-71
2021/07/13 03:20:49;;;;;;;;;12.75;12.25;;;;;17.54;86.24;100754.41;5053531;28;45415;-72
2021/07/13 03:23:17;;;;;;;;;15.00;13.25;;;;;17.54;86.43;100746.41;5049920;28;45603;-73
2021/07/13 03:25:44;;;;;;;;;17.25;13.50;;;;;17.52;85.95;100743.09;5051827;28;45888;-73
2021/07/13 03:28:14;;;;;;;;;16.50;13.50;;;;;17.50;86.25;100732.59;5045812;28;45603;-68
2021/07/13 03:30:41;;;;;;;;;15.50;13.50;;;;;17.47;86.22;100722.28;5051470;28;45602;-76
2021/07/13 03:33:09;;;;;;;;;15.25;12.75;;;;;17.45;86.34;100718.97;5051140;28;45596;-69
2021/07/13 03:35:35;;;;;;;;;14.75;13.50;;;;;17.46;86.51;100727.81;5048665;28;46277;-72
2021/07/13 03:38:01;;;;;;;;;12.25;11.25;;;;;17.45;86.67;100729.66;5046367;28;46416;-74
2021/07/13 03:40:28;;;;;;;;;14.00;14.00;;;;;17.45;85.82;100735.00;5051536;28;45646;-73
2021/07/13 03:42:54;;;;;;;;;19.25;17.75;;;;;17.47;86.26;100737.50;5044319;28;45537;-71
2021/07/13 03:45:21;;;;;;;;;14.25;13.00;;;;;17.47;87.02;100730.31;5045202;28;45680;-70
2021/07/13 03:47:52;;;;;;;;;13.25;11.50;;;;;17.49;86.84;100732.78;5055769;28;46463;-73
2021/07/13 03:50:19;;;;;;;;;16.25;15.75;;;;;17.50;86.38;100745.13;5051054;28;45668;-70
2021/07/13 03:52:45;;;;;;;;;16.75;15.00;;;;;17.51;86.81;100742.25;5049587;28;45357;-71
2021/07/13 03:55:11;;;;;;;;;16.75;12.75;;;;;17.51;87.10;100731.56;5051338;28;46185;-73
2021/07/13 03:57:37;;;;;;;;;19.25;15.25;;;;;17.51;87.02;100736.94;5051753;28;46843;-70
2021/07/13 04:00:07;;;;;;;;;13.50;12.25;;;;;17.52;86.50;100737.75;5051682;28;45375;-72
2021/07/13 04:02:33;;;;;;;;;16.00;14.50;;;;;17.50;86.99;100739.78;5052759;28;45722;-75
2021/07/13 04:04:58;;;;;;;;;14.00;13.75;;;;;17.52;87.29;100729.72;5053723;28;45494;-71
2021/07/13 04:07:23;;;;;;;;;14.25;12.75;;;;;17.52;86.97;100743.91;5048421;28;45419;-70
2021/07/13 04:09:49;;;;;;;;;13.00;12.50;;;;;17.53;86.68;100748.25;5047247;28;46061;-73
2021/07/13 04:12:14;;;;;;;;;15.50;13.50;;;;;17.53;86.27;100744.72;5048210;28;45445;-71
2021/07/13 04:14:39;;;;;;;;;13.00;12.25;;;;;17.54;86.30;100739.19;5049439;28;45489;-75
2021/07/13 04:17:05;;;;;;;;;15.25;13.00;;;;;17.53;86.25;100728.69;5054468;28;45663;-72
2021/07/13 04:19:30;;;;;;;;;15.25;13.00;;;;;17.53;85.99;100731.38;5046983;28;45559;-75
2021/07/13 04:21:56;;;;;;;;;13.00;11.50;;;;;17.53;86.79;100726.88;5052938;28;45928;-71
2021/07/13 04:24:21;;;;;;;;;12.00;12.00;;;;;17.53;86.52;100726.88;5057514;28;45650;-72
2021/07/13 04:26:46;;;;;;;;;19.00;14.25;;;;;17.54;86.67;100738.38;5046153;28;45905;-72
2021/07/13 04:29:12;;;;;;;;;15.75;13.75;;;;;17.55;86.67;100742.69;5049672;28;45462;-75
2021/07/13 04:31:37;;;;;;;;;13.00;11.00;;;;;17.56;86.78;100749.69;5052493;28;45373;-69
2021/07/13 04:34:08;;;;;;;;;14.75;14.00;;;;;17.57;87.05;100748.66;5046798;28;45427;-71
2021/07/13 04:36:33;;;;;;;;;13.75;12.75;;;;;17.59;86.91;100746.63;5064719;28;45472;-78
2021/07/13 04:38:59;;;;;;;;;16.75;14.00;;;;;17.59;86.59;100749.31;5038106;28;45481;-70
2021/07/13 04:41:24;;;;;;;;;16.25;13.50;;;;;17.61;86.70;100744.59;5043027;28;45860;-75
2021/07/13 04:43:49;;;;;;;;;19.25;16.50;;;;;17.61;86.88;100752.63;5057095;28;45557;-75
2021/07/13 04:46:15;;;;;;;;;12.50;12.50;;;;;17.60;86.46;100735.72;5050838;28;45623;-75
2021/07/13 04:48:40;;;;;;;;;12.50;12.00;;;;;17.61;85.88;100737.41;5055119;28;45366;-74
2021/07/13 04:51:05;;;;;;;;;17.00;14.25;;;;;17.61;85.74;100726.72;5053084;28;45445;-71
2021/07/13 04:53:31;;;;;;;;;15.00;13.75;;;;;17.61;85.98;100726.72;5046788;28;45584;-71
2021/07/13 04:55:56;;;;;;;;;13.75;12.50;;;;;17.61;85.77;100731.25;5047862;28;49499;-78
2021/07/13 04:58:22;;;;;;;;;16.25;15.25;;;;;17.61;85.92;100729.38;5049176;28;46131;-73
2021/07/13 05:00:47;;;;;;;;;19.00;14.50;;;;;17.62;86.10;100736.38;5051481;28;45530;-74
2021/07/13 05:03:13;;;;;;;;;20.00;18.00;;;;;17.63;86.59;100737.22;5051428;28;45572;-70
2021/07/13 05:05:38;;;;;;;;;18.50;16.25;;;;;17.63;86.32;100734.53;5032581;28;47925;-71
2021/07/13 05:08:04;;;;;;;;;19.75;16.25;;;;;17.63;86.16;100738.03;5054787;28;45546;-74
2021/07/13 05:10:29;;;;;;;;;22.75;17.00;;;;;17.63;85.86;100745.22;5044863;28;45923;-74
2021/07/13 05:12:55;;;;;;;;;19.00;18.00;;;;;17.64;86.03;100744.19;5047829;28;45877;-72
2021/07/13 05:15:20;;;;;;;;;18.50;15.75;;;;;17.64;86.07;100746.88;5046313;28;45501;-70
2021/07/13 05:17:45;;;;;;;;;18.75;17.75;;;;;17.65;86.57;100743.16;5052299;28;45427;-72
2021/07/13 05:20:13;;;;;;;;;19.00;17.50;;;;;17.66;86.36;100750.19;5049456;28;45695;-70
2021/07/13 05:22:39;;;;;;;;;21.75;19.25;;;;;17.67;86.23;100761.69;5053723;28;45422;-72
2021/07/13 05:25:07;;;;;;;;;19.00;16.50;;;;;17.70;85.85;100766.63;5050520;28;45787;-72
2021/07/13 05:27:36;;;;;;;;;18.50;17.25;;;;;17.69;86.54;100765.81;5048641;28;45478;-75
2021/07/13 05:30:02;;;;;;;;;14.50;14.25;;;;;17.71;86.80;100768.31;5048127;28;46492;-74
2021/07/13 05:32:28;;;;;;;;;20.75;17.00;;;;;17.72;86.84;100768.09;5058499;28;45544;-71
2021/07/13 05:34:54;;;;;;;;;18.75;16.75;;;;;17.76;86.62;100776.56;5054941;28;47390;-74
2021/07/13 05:37:19;;;;;;;;;18.00;17.00;;;;;17.77;86.72;100770.19;5059419;28;45455;-70
2021/07/13 05:39:45;;;;;;;;;16.75;15.50;;;;;17.78;86.98;100771.84;5048303;28;45517;-72
2021/07/13 05:42:10;;;;;;;;;21.00;16.75;;;;;17.81;86.75;100776.84;5049295;28;45462;-72
2021/07/13 05:44:36;;;;;;;;;19.25;17.50;;;;;17.84;86.08;100779.09;5048773;28;46620;-72
2021/07/13 05:47:01;;;;;;;;;22.00;19.00;;;;;17.86;86.21;100770.91;5049975;28;45510;-74
2021/07/13 05:49:27;;;;;;;;;19.75;19.00;;;;;17.88;86.29;100777.72;5049695;28;45450;-72
2021/07/13 05:51:52;;;;;;;;;22.50;20.50;;;;;17.90;85.77;100767.63;5045917;28;45915;-71
2021/07/13 05:54:17;;;;;;;;;19.00;18.00;;;;;17.91;85.35;100773.81;5047383;28;45605;-70
2021/07/13 05:56:43;;;;;;;;;19.00;17.00;;;;;17.91;85.97;100771.97;5047995;28;45420;-71
2021/07/13 05:59:08;;;;;;;;;22.75;19.25;;;;;17.92;85.87;100770.91;5048907;28;46047;-71
2021/07/13 06:01:33;;;;;;;;;24.25;20.25;;;;;17.94;85.40;100768.06;5047107;28;45501;-71
2021/07/13 06:03:59;;;;;;;;;21.25;17.25;;;;;17.94;85.24;100771.56;5054155;28;46165;-72
2021/07/13 06:06:26;;;;;;;;;18.00;16.25;;;;;17.93;85.09;100767.25;5047301;28;45731;-70
2021/07/13 06:08:52;;;;;;;;;19.50;17.50;;;;;17.95;85.37;100761.69;5045652;28;45509;-74
2021/07/13 06:11:17;;;;;;;;;21.75;18.25;;;;;17.95;85.19;100767.88;5053121;28;46026;-72
2021/07/13 06:13:43;;;;;;;;;19.50;16.75;;;;;17.98;85.52;100764.00;5046042;28;45738;-72
2021/07/13 06:16:08;;;;;;;;;21.50;19.50;;;;;18.01;85.82;100763.59;5038103;28;45745;-74
2021/07/13 06:18:34;;;;;;;;;22.00;20.00;;;;;18.04;86.03;100773.88;5051441;28;45609;-74
2021/07/13 06:20:59;;;;;;;;;19.50;17.75;;;;;18.08;85.62;100764.44;5046737;28;45433;-71
2021/07/13 06:23:25;;;;;;;;;22.00;20.00;;;;;18.13;85.72;100769.22;5049406;28;45556;-72
2021/07/13 06:25:50;;;;;;;;;24.00;19.75;;;;;18.17;85.33;100763.25;5047042;28;45600;-72
2021/07/13 06:28:15;;;;;;;;;16.50;14.00;;;;;18.23;84.95;100762.47;5047096;28;45698;-73
2021/07/13 06:30:41;;;;;;;;;23.75;17.50;;;;;18.26;85.30;100762.06;5056370;28;45741;-72
2021/07/13 06:33:07;;;;;;;;;17.75;17.25;;;;;18.31;84.35;100763.31;5047143;28;45330;-72
2021/07/13 06:35:32;;;;;;;;;21.25;17.25;;;;;18.36;85.62;100760.88;5032908;28;46097;-76
2021/07/13 06:37:59;;;;;;;;;21.25;18.50;;;;;18.40;83.75;100746.06;5046485;28;45539;-69
2021/07/13 06:40:25;;;;;;;;;21.50;19.00;;;;;18.44;84.16;100753.47;5047693;28;45622;-72
2021/07/13 06:42:50;;;;;;;;;22.25;16.75;;;;;18.50;84.18;100751.88;5048678;28;46889;-81
2021/07/13 06:45:16;;;;;;;;;23.50;18.75;;;;;18.57;84.41;100749.19;5048692;28;45747;-68
2021/07/13 06:47:41;;;;;;;;;27.00;19.25;;;;;18.62;83.97;100758.28;5049157;28;45417;-76
2021/07/13 06:50:07;;;;;;;;;19.50;18.25;;;;;18.65;84.83;100749.84;5048173;28;45649;-69
2021/07/13 06:52:33;;;;;;;;;19.25;18.50;;;;;18.70;84.20;100746.56;5046411;28;46136;-69
2021/07/13 06:55:02;;;;;;;;;23.50;21.50;;;;;18.75;83.97;100744.09;5047720;28;45636;-71
2021/07/13 06:57:28;;;;;;;;;24.50;21.75;;;;;18.78;83.66;100742.91;5048265;28;45623;-68
2021/07/13 06:59:53;;;;;;;;;23.75;18.75;;;;;18.81;83.81;100750.53;5055533;28;45845;-68
2021/07/13 07:02:18;;;;;;;;;25.25;18.50;;;;;18.83;83.46;100748.47;5051519;28;46083;-74
2021/07/13 07:04:44;;;;;;;;;25.75;21.75;;;;;18.83;82.52;100743.13;5047609;28;49255;-73
2021/07/13 07:07:09;;;;;;;;;22.50;19.50;;;;;18.86;82.38;100737.34;5047567;28;45616;-76
2021/07/13 07:09:35;;;;;;;;;21.50;21.00;;;;;18.87;82.83;100739.03;5044700;28;46016;-74
2021/07/13 07:12:00;;;;;;;;;21.25;19.25;;;;;18.88;83.53;100732.63;5051520;28;46373;-74
2021/07/13 07:14:25;;;;;;;;;23.50;21.50;;;;;18.93;83.28;100732.84;5051237;28;45542;-76
2021/07/13 07:16:51;;;;;;;;;22.50;19.75;;;;;19.00;83.29;100719.47;5046008;28;45541;-70
2021/07/13 07:19:16;;;;;;;;;21.50;20.75;;;;;19.08;82.32;100712.03;5047355;28;45531;-69
2021/07/13 07:21:41;;;;;;;;;22.75;20.00;;;;;19.16;83.12;100715.53;5047636;28;45405;-76
2021/07/13 07:24:07;;;;;;;;;23.25;19.50;;;;;19.24;82.79;100731.44;5047738;28;45703;-72
2021/07/13 07:26:32;;;;;;;;;20.75;17.50;;;;;19.31;82.31;100738.44;5050748;28;46777;-72
2021/07/13 07:28:57;;;;;;;;;30.75;23.50;;;;;19.38;83.21;100738.41;5050181;28;45556;-77
2021/07/13 07:31:23;;;;;;;;;24.00;21.00;;;;;19.48;82.26;100744.16;5048564;28;45523;-79
2021/07/13 07:33:48;;;;;;;;;22.25;20.50;;;;;19.57;81.65;100754.69;5048556;28;45649;-70
2021/07/13 07:36:14;;;;;;;;;27.75;21.25;;;;;19.63;81.93;100753.84;5044405;28;45586;-73
2021/07/13 07:38:40;;;;;;;;;26.00;21.00;;;;;19.68;80.72;100770.16;5048879;28;45670;-72
2021/07/13 07:41:06;;;;;;;;;27.25;21.50;;;;;19.68;80.57;100770.16;5046905;28;46333;-72
2021/07/13 07:43:31;;;;;;;;;24.75;21.25;;;;;19.68;80.90;100759.44;5047055;28;45711;-74
2021/07/13 07:45:57;;;;;;;;;22.00;18.50;;;;;19.69;81.48;100756.56;5044484;28;46056;-71
2021/07/13 07:48:22;;;;;;;;;25.25;18.50;;;;;19.73;80.41;100767.66;5024466;28;45572;-75
2021/07/13 07:50:48;;;;;;;;;20.25;17.25;;;;;19.77;79.48;100768.91;5050865;28;45967;-72
2021/07/13 07:53:13;;;;;;;;;20.50;16.75;;;;;19.79;80.50;100774.91;5047257;28;45777;-70
2021/07/13 07:55:38;;;;;;;;;20.25;16.25;;;;;19.82;80.25;100766.44;5046743;28;45559;-67
2021/07/13 07:58:04;;;;;;;;;24.50;18.25;;;;;19.86;79.61;100767.66;5062250;28;45585;-71
2021/07/13 08:00:30;;;;;;;;;21.50;18.75;;;;;19.94;79.98;100764.75;5051171;28;45955;-78
2021/07/13 08:02:56;;;;;;;;;20.50;17.25;;;;;20.10;80.98;100768.00;5053400;28;45552;-70
2021/07/13 08:05:24;;;;;;;;;22.50;20.50;;;;;20.27;79.50;100763.00;5050100;28;45803;-70
2021/07/13 08:07:50;;;;;;;;;20.75;17.75;;;;;20.37;78.50;100774.91;5052691;28;45924;-75
2021/07/13 08:10:16;;;;;;;;;22.00;18.50;;;;;20.44;78.56;100774.91;5045449;28;45599;-74
2021/07/13 08:12:42;;;;;;;;;18.00;15.25;;;;;20.48;77.92;100783.38;5032235;28;45529;-75
2021/07/13 08:15:09;;;;;;;;;14.25;14.00;;;;;20.50;78.00;100786.63;5042448;28;45874;-72
2021/07/13 08:17:35;;;;;;;;;19.00;15.50;;;;;20.43;77.25;100781.31;5048287;28;45460;-70
2021/07/13 08:20:01;;;;;;;;;15.25;12.00;;;;;20.33;76.88;100786.31;5048119;28;45864;-74
2021/07/13 08:22:27;;;;;;;;;19.25;15.25;;;;;20.26;77.66;100783.66;5036806;28;45590;-69
2021/07/13 08:24:52;;;;;;;;;12.75;11.25;;;;;20.22;77.87;100790.47;5048373;28;45461;-73
2021/07/13 08:27:18;;;;;;;;;15.00;11.75;;;;;20.22;78.28;100787.78;5049065;28;45838;-72
2021/07/13 08:29:43;;;;;;;;;11.25;11.25;;;;;20.22;77.88;100782.41;5049928;28;45521;-71
2021/07/13 08:32:09;;;;;;;;;10.50;9.00;;;;;20.22;77.87;100793.16;5047756;28;45695;-73
2021/07/13 08:34:35;;;;;;;;;12.00;11.00;;;;;20.21;77.75;100791.50;5053086;28;45746;-73
2021/07/13 08:37:03;;;;;;;;;13.25;10.25;;;;;20.15;78.57;100787.81;5050181;28;45472;-76
2021/07/13 08:39:29;;;;;;;;;13.00;10.25;;;;;20.12;79.48;100782.84;5048957;28;46549;-73
2021/07/13 08:41:54;;;;;;;;;16.75;11.00;;;;;20.14;79.32;100782.66;5046260;28;45833;-78
2021/07/13 08:44:20;;;;;;;;;17.00;14.00;;;;;20.14;79.28;100788.03;5049074;28;45467;-76
2021/07/13 08:46:45;;;;;;;;;18.25;15.00;;;;;20.10;79.64;100784.94;5033033;28;45613;-76
2021/07/13 08:49:13;;;;;;;;;11.50;8.50;;;;;20.05;79.51;100787.41;5049008;28;45515;-78
2021/07/13 08:51:40;;;;;;;;;13.75;12.25;;;;;19.98;79.31;100779.41;5028148;28;46161;-79
2021/07/13 08:54:06;;;;;;;;;10.50;10.50;;;;;19.95;79.99;100779.81;5045931;28;45606;-72
2021/07/13 08:56:33;;;;;;;;;14.50;12.25;;;;;19.94;80.55;100775.47;5053336;28;45628;-75
2021/07/13 08:59:00;;;;;;;;;15.25;12.25;;;;;19.94;80.78;100775.47;5051873;28;46439;-76
2021/07/13 09:01:25;;;;;;;;;17.00;14.00;;;;;19.95;79.93;100781.66;5046298;28;45596;-73
2021/07/13 09:03:56;;;;;;;;;15.50;15.00;;;;;19.95;79.87;100774.47;5043792;28;45495;-73
2021/07/13 09:06:22;;;;;;;;;15.75;13.75;;;;;19.98;80.34;100782.09;5058381;28;45545;-79
2021/07/13 09:08:48;;;;;;;;;15.25;12.00;;;;;20.03;80.37;100784.13;5046502;28;45634;-76
2021/07/13 09:11:18;;;;;;;;;15.00;10.75;;;;;20.06;79.43;100796.31;5044196;28;45460;-75
2021/07/13 09:13:48;;;;;;;;;14.00;9.75;;;;;20.06;80.06;100793.63;5054882;28;45943;-76
2021/07/13 09:16:16;;;;;;;;;16.00;12.75;;;;;20.05;80.38;100802.69;5053121;28;45437;-72
2021/07/13 09:18:43;;;;;;;;;14.50;13.00;;;;;20.06;80.58;100804.34;5044815;28;45554;-79
2021/07/13 09:21:27;;;;;;;;;16.75;12.75;;;;;20.09;80.22;100809.28;5054714;28;45480;-72
2021/07/13 09:24:11;;;;;;;;;15.50;12.50;;;;;20.17;80.45;100803.69;5049594;28;45528;-72
2021/07/13 09:26:50;;;;;;;;;15.50;11.25;;;;;20.20;79.17;100814.00;5050026;28;45567;-75
2021/07/13 09:29:48;;;;;;;;;13.00;12.50;;;;;20.22;78.83;100806.56;5046619;28;45552;-71
2021/07/13 09:32:19;;;;;;;;;15.25;11.25;;;;;20.21;79.84;100807.59;5033889;28;45472;-72
2021/07/13 09:34:48;;;;;;;;;14.25;13.25;;;;;20.19;79.51;100807.81;5026834;28;45530;-76
2021/07/13 09:37:27;;;;;;;;;16.50;11.50;;;;;20.16;80.25;100805.56;5055201;28;45441;-74
2021/07/13 09:40:11;;;;;;;;;14.75;10.75;;;;;20.13;80.25;100805.97;5044476;28;46549;-76
2021/07/13 09:42:47;;;;;;;;;17.00;14.50;;;;;20.10;80.39;100810.94;5045209;28;45564;-77
2021/07/13 09:45:18;;;;;;;;;13.50;12.00;;;;;20.06;80.21;100807.03;5049085;28;45543;-76
2021/07/13 09:47:45;;;;;;;;;13.25;12.75;;;;;20.02;80.28;100814.66;5049535;28;45623;-71
2021/07/13 09:50:12;;;;;;;;;12.50;12.50;;;;;19.96;80.14;100820.88;5045250;28;45585;-71
2021/07/13 09:52:37;;;;;;;;;20.50;14.25;;;;;19.86;81.19;100815.94;5044396;28;45750;-72
2021/07/13 09:55:14;;;;;;;;;17.50;15.50;;;;;19.77;81.77;100814.50;5045119;28;45931;-71
2021/07/13 09:57:40;;;;;;;;;14.25;13.25;;;;;19.72;81.74;100831.22;5047613;28;45405;-72
2021/07/13 10:00:06;;;;;;;;;15.00;14.00;;;;;19.68;80.95;100829.13;5045661;28;46297;-72
2021/07/13 10:02:32;;;;;;;;;17.00;15.25;;;;;19.64;81.10;100830.56;5052786;28;45695;-78
2021/07/13 10:05:00;;;;;;;;;16.75;15.50;;;;;19.60;81.58;100826.66;5043871;28;45578;-71
2021/07/13 10:07:27;;;;;;;;;17.75;15.25;;;;;19.56;82.15;100820.88;5044470;28;45936;-79
2021/07/13 10:09:55;;;;;;;;;16.75;14.75;;;;;19.50;83.21;100824.38;5041554;28;46661;-80
2021/07/13 10:12:24;;;;;;;;;15.25;14.00;;;;;19.41;84.08;100818.41;5032210;28;45989;-72
2021/07/13 10:14:56;;;;;;;;;16.25;15.00;;;;;19.39;83.92;100830.38;5042273;28;45859;-76
2021/07/13 10:17:28;;;;;;;;;15.75;14.75;;;;;19.35;84.04;100824.56;5046566;28;45457;-71
2021/07/13 10:20:05;;;;;;;;;18.75;15.25;;;;;19.40;83.82;100827.47;5040701;28;45585;-72
2021/07/13 10:22:32;;;;;;;;;15.75;14.00;;;;;19.45;83.70;100833.03;5048319;28;45407;-76
2021/07/13 10:24:59;;;;;;;;;16.25;15.50;;;;;19.54;83.44;100831.81;5050508;28;45530;-71
2021/07/13 10:27:25;;;;;;;;;16.75;12.00;;;;;19.65;83.25;100840.25;5046650;28;45724;-77
2021/07/13 10:29:50;;;;;;;;;18.50;15.25;;;;;19.75;83.21;100829.97;5045172;28;45650;-72
2021/07/13 10:32:15;;;;;;;;;18.00;16.50;;;;;19.86;83.31;100829.34;5044738;28;46018;-73
2021/07/13 10:34:50;;;;;;;;;12.25;9.75;;;;;19.95;83.05;100830.78;5045524;28;45565;-72
2021/07/13 10:37:41;;;;;;;;;13.00;11.75;;;;;20.01;81.79;100829.13;5042319;28;45863;-71
2021/07/13 10:40:06;;;;;;;;;9.75;9.00;;;;;20.05;81.68;100843.75;5041467;28;46831;-75
2021/07/13 10:42:41;;;;;;;;;8.00;7.75;;;;;20.07;81.92;100833.63;5042416;28;45668;-72
2021/07/13 10:45:15;;;;;;;;;9.75;9.50;;;;;20.11;80.99;100834.06;5046262;28;45740;-71
2021/07/13 10:48:08;;;;;;;;;9.00;9.00;;;;;20.14;81.77;100823.72;5050893;28;45490;-69
2021/07/13 10:50:39;;;;;;;;;8.50;8.50;;;;;20.20;81.56;100816.69;5038137;28;45632;-70
2021/07/13 10:53:08;;;;;;;;;14.25;9.00;;;;;20.28;81.63;100824.53;5046268;28;45543;-75
2021/07/13 10:55:33;;;;;;;;;9.75;8.25;;;;;20.37;81.76;100823.22;5047387;28;45635;-70
2021/07/13 10:58:17;;;;;;;;;9.00;9.00;;;;;20.49;81.47;100820.72;5048460;28;45594;-71
2021/07/13 11:03:29;;;;;;;;;14.00;12.25;;;;;20.71;81.33;100818.59;5043692;28;45525;-69
2021/07/13 11:06:18;;;;;;;;;9.50;8.75;;;;;20.87;80.94;100821.81;5047949;28;45421;-69
2021/07/13 11:08:47;;;;;;;;;11.75;11.75;;;;;20.98;82.08;100815.75;5037419;28;45535;-72
2021/07/13 11:11:16;;;;;;;;;12.00;11.25;;;;;21.09;80.66;100827.69;5045578;28;45639;-70
2021/07/13 11:13:45;;;;;;;;;12.25;12.25;;;;;21.15;79.91;100822.28;5046227;28;45670;-72
2021/07/13 11:16:12;;;;;;;;;12.50;12.50;;;;;21.19;79.23;100831.56;5041397;28;45556;-70
2021/07/13 11:18:38;;;;;;;;;13.25;11.00;;;;;21.24;78.83;100829.03;5051546;28;45548;-72